sensor_id;sensor_type;location;lat;lon;timestamp;P1;durP1;ratioP1;P2;durP2;ratioP2
79493;SDS011;68951;53.130;18.104;2023-12-04T00:01:22;12.90;;;4.80;;
79493;SDS011;68951;53.130;18.104;2023-12-04T00:03:49;15.40;;;6.50;;
79493;SDS011;68951;53.130;18.104;2023-12-04T00:06:15;12.80;;;5.40;;
79493;SDS011;68951;53.130;18.104;2023-12-04T00:08:42;11.60;;;4.00;;
79493;SDS011;68951;53.130;18.104;2023-12-04T00:11:09;12.00;;;4.70;;
79493;SDS011;68951;53.130;18.104;2023-12-04T00:13:36;9.60;;;3.90;;
79493;SDS011;68951;53.130;18.104;2023-12-04T00:16:03;10.80;;;3.80;;
79493;SDS011;68951;53.130;18.104;2023-12-04T00:18:30;10.20;;;3.40;;
79493;SDS011;68951;53.130;18.104;2023-12-04T00:20:57;11.00;;;3.50;;
79493;SDS011;68951;53.130;18.104;2023-12-04T00:23:23;10.60;;;4.90;;
79493;SDS011;68951;53.130;18.104;2023-12-04T00:25:50;13.40;;;6.50;;
79493;SDS011;68951;53.130;18.104;2023-12-04T00:28:17;11.30;;;5.00;;
79493;SDS011;68951;53.130;18.104;2023-12-04T00:30:44;9.90;;;3.70;;
79493;SDS011;68951;53.130;18.104;2023-12-04T00:33:11;14.30;;;6.20;;
79493;SDS011;68951;53.130;18.104;2023-12-04T00:35:37;11.30;;;5.00;;
79493;SDS011;68951;53.130;18.104;2023-12-04T00:38:04;8.70;;;3.00;;
79493;SDS011;68951;53.130;18.104;2023-12-04T00:40:31;9.20;;;3.50;;
79493;SDS011;68951;53.130;18.104;2023-12-04T00:42:58;11.10;;;3.80;;
79493;SDS011;68951;53.130;18.104;2023-12-04T00:45:24;13.40;;;5.50;;
79493;SDS011;68951;53.130;18.104;2023-12-04T00:47:51;10.50;;;3.80;;
79493;SDS011;68951;53.130;18.104;2023-12-04T00:50:18;14.00;;;6.50;;
79493;SDS011;68951;53.130;18.104;2023-12-04T00:52:45;13.80;;;5.70;;
79493;SDS011;68951;53.130;18.104;2023-12-04T00:55:12;10.40;;;4.00;;
79493;SDS011;68951;53.130;18.104;2023-12-04T00:57:39;11.20;;;4.70;;
79493;SDS011;68951;53.130;18.104;2023-12-04T01:00:06;12.80;;;5.40;;
79493;SDS011;68951;53.130;18.104;2023-12-04T01:02:33;9.80;;;4.00;;
79493;SDS011;68951;53.130;18.104;2023-12-04T01:05:00;11.40;;;5.30;;
79493;SDS011;68951;53.130;18.104;2023-12-04T01:07:27;10.40;;;4.20;;
79493;SDS011;68951;53.130;18.104;2023-12-04T01:09:54;13.40;;;6.70;;
79493;SDS011;68951;53.130;18.104;2023-12-04T01:12:21;12.60;;;5.90;;
79493;SDS011;68951;53.130;18.104;2023-12-04T01:14:48;9.30;;;3.20;;
79493;SDS011;68951;53.130;18.104;2023-12-04T01:17:15;10.50;;;4.30;;
79493;SDS011;68951;53.130;18.104;2023-12-04T01:19:42;8.50;;;3.00;;
79493;SDS011;68951;53.130;18.104;2023-12-04T01:22:09;6.80;;;2.00;;
79493;SDS011;68951;53.130;18.104;2023-12-04T01:24:35;13.10;;;5.80;;
79493;SDS011;68951;53.130;18.104;2023-12-04T01:27:02;10.30;;;4.70;;
79493;SDS011;68951;53.130;18.104;2023-12-04T01:29:29;8.70;;;2.80;;
79493;SDS011;68951;53.130;18.104;2023-12-04T01:31:58;10.40;;;4.70;;
79493;SDS011;68951;53.130;18.104;2023-12-04T01:34:24;7.70;;;3.20;;
79493;SDS011;68951;53.130;18.104;2023-12-04T01:36:52;9.10;;;3.80;;
79493;SDS011;68951;53.130;18.104;2023-12-04T01:39:18;11.40;;;5.50;;
79493;SDS011;68951;53.130;18.104;2023-12-04T01:41:45;8.00;;;2.40;;
79493;SDS011;68951;53.130;18.104;2023-12-04T01:44:12;19.30;;;7.60;;
79493;SDS011;68951;53.130;18.104;2023-12-04T01:46:38;16.80;;;7.40;;
79493;SDS011;68951;53.130;18.104;2023-12-04T01:49:05;13.80;;;5.60;;
79493;SDS011;68951;53.130;18.104;2023-12-04T01:51:32;11.40;;;5.40;;
79493;SDS011;68951;53.130;18.104;2023-12-04T01:54:00;11.70;;;4.40;;
79493;SDS011;68951;53.130;18.104;2023-12-04T01:56:30;12.40;;;5.10;;
79493;SDS011;68951;53.130;18.104;2023-12-04T01:58:57;15.10;;;6.90;;
79493;SDS011;68951;53.130;18.104;2023-12-04T02:01:24;11.70;;;4.70;;
79493;SDS011;68951;53.130;18.104;2023-12-04T02:03:50;11.10;;;4.70;;
79493;SDS011;68951;53.130;18.104;2023-12-04T02:06:17;10.00;;;3.70;;
79493;SDS011;68951;53.130;18.104;2023-12-04T02:08:47;9.10;;;2.60;;
79493;SDS011;68951;53.130;18.104;2023-12-04T02:11:14;9.60;;;3.30;;
79493;SDS011;68951;53.130;18.104;2023-12-04T02:13:41;9.20;;;3.40;;
79493;SDS011;68951;53.130;18.104;2023-12-04T02:16:09;9.90;;;3.60;;
79493;SDS011;68951;53.130;18.104;2023-12-04T02:18:38;11.50;;;4.00;;
79493;SDS011;68951;53.130;18.104;2023-12-04T02:21:05;14.90;;;6.60;;
79493;SDS011;68951;53.130;18.104;2023-12-04T02:23:32;10.80;;;4.30;;
79493;SDS011;68951;53.130;18.104;2023-12-04T02:26:18;14.10;;;6.70;;
79493;SDS011;68951;53.130;18.104;2023-12-04T02:28:55;9.40;;;3.70;;
79493;SDS011;68951;53.130;18.104;2023-12-04T02:31:29;10.70;;;4.30;;
79493;SDS011;68951;53.130;18.104;2023-12-04T02:33:58;12.60;;;5.50;;
79493;SDS011;68951;53.130;18.104;2023-12-04T02:36:27;9.70;;;3.60;;
79493;SDS011;68951;53.130;18.104;2023-12-04T02:38:55;8.90;;;2.80;;
79493;SDS011;68951;53.130;18.104;2023-12-04T02:41:22;9.00;;;3.10;;
79493;SDS011;68951;53.130;18.104;2023-12-04T02:43:49;9.50;;;2.90;;
79493;SDS011;68951;53.130;18.104;2023-12-04T02:46:16;10.40;;;4.30;;
79493;SDS011;68951;53.130;18.104;2023-12-04T02:48:43;9.40;;;3.50;;
79493;SDS011;68951;53.130;18.104;2023-12-04T02:51:10;8.60;;;3.10;;
79493;SDS011;68951;53.130;18.104;2023-12-04T02:53:37;12.10;;;5.10;;
79493;SDS011;68951;53.130;18.104;2023-12-04T02:56:04;10.30;;;4.30;;
79493;SDS011;68951;53.130;18.104;2023-12-04T02:58:32;17.00;;;6.80;;
79493;SDS011;68951;53.130;18.104;2023-12-04T03:01:00;12.30;;;4.90;;
79493;SDS011;68951;53.130;18.104;2023-12-04T03:03:27;15.80;;;4.80;;
79493;SDS011;68951;53.130;18.104;2023-12-04T03:05:54;13.70;;;5.20;;
79493;SDS011;68951;53.130;18.104;2023-12-04T03:08:20;11.20;;;4.50;;
79493;SDS011;68951;53.130;18.104;2023-12-04T03:10:47;9.80;;;4.30;;
79493;SDS011;68951;53.130;18.104;2023-12-04T03:13:14;8.40;;;2.80;;
79493;SDS011;68951;53.130;18.104;2023-12-04T03:15:41;12.10;;;5.40;;
79493;SDS011;68951;53.130;18.104;2023-12-04T03:18:08;12.80;;;5.80;;
79493;SDS011;68951;53.130;18.104;2023-12-04T03:20:34;8.90;;;3.40;;
79493;SDS011;68951;53.130;18.104;2023-12-04T03:23:01;15.50;;;7.40;;
79493;SDS011;68951;53.130;18.104;2023-12-04T03:25:28;8.40;;;3.50;;
79493;SDS011;68951;53.130;18.104;2023-12-04T03:27:55;9.60;;;4.00;;
79493;SDS011;68951;53.130;18.104;2023-12-04T03:30:21;8.60;;;3.10;;
79493;SDS011;68951;53.130;18.104;2023-12-04T03:32:48;9.60;;;3.80;;
79493;SDS011;68951;53.130;18.104;2023-12-04T03:35:15;12.00;;;5.60;;
79493;SDS011;68951;53.130;18.104;2023-12-04T03:37:42;9.20;;;4.20;;
79493;SDS011;68951;53.130;18.104;2023-12-04T03:40:09;12.50;;;5.30;;
79493;SDS011;68951;53.130;18.104;2023-12-04T03:42:36;10.00;;;3.20;;
79493;SDS011;68951;53.130;18.104;2023-12-04T03:45:03;14.70;;;5.80;;
79493;SDS011;68951;53.130;18.104;2023-12-04T03:47:31;9.70;;;3.70;;
79493;SDS011;68951;53.130;18.104;2023-12-04T03:49:57;14.50;;;6.20;;
79493;SDS011;68951;53.130;18.104;2023-12-04T03:52:24;13.00;;;5.00;;
79493;SDS011;68951;53.130;18.104;2023-12-04T03:54:51;14.40;;;5.90;;
79493;SDS011;68951;53.130;18.104;2023-12-04T03:57:18;14.00;;;5.20;;
79493;SDS011;68951;53.130;18.104;2023-12-04T03:59:44;12.30;;;5.30;;
79493;SDS011;68951;53.130;18.104;2023-12-04T04:02:11;9.80;;;4.30;;
79493;SDS011;68951;53.130;18.104;2023-12-04T04:04:38;11.60;;;5.40;;
79493;SDS011;68951;53.130;18.104;2023-12-04T04:07:05;11.70;;;5.60;;
79493;SDS011;68951;53.130;18.104;2023-12-04T04:09:32;12.80;;;5.40;;
79493;SDS011;68951;53.130;18.104;2023-12-04T04:11:58;6.80;;;1.80;;
79493;SDS011;68951;53.130;18.104;2023-12-04T04:14:25;12.90;;;5.90;;
79493;SDS011;68951;53.130;18.104;2023-12-04T04:16:52;7.50;;;2.60;;
79493;SDS011;68951;53.130;18.104;2023-12-04T04:19:19;10.00;;;3.40;;
79493;SDS011;68951;53.130;18.104;2023-12-04T04:21:45;15.50;;;6.80;;
79493;SDS011;68951;53.130;18.104;2023-12-04T04:24:12;16.30;;;6.90;;
79493;SDS011;68951;53.130;18.104;2023-12-04T04:26:39;10.30;;;3.90;;
79493;SDS011;68951;53.130;18.104;2023-12-04T04:29:06;12.40;;;3.70;;
79493;SDS011;68951;53.130;18.104;2023-12-04T04:31:32;14.00;;;6.50;;
79493;SDS011;68951;53.130;18.104;2023-12-04T04:33:59;13.00;;;4.60;;
79493;SDS011;68951;53.130;18.104;2023-12-04T04:36:26;16.00;;;6.50;;
79493;SDS011;68951;53.130;18.104;2023-12-04T04:38:53;14.10;;;6.00;;
79493;SDS011;68951;53.130;18.104;2023-12-04T04:41:19;12.90;;;5.00;;
79493;SDS011;68951;53.130;18.104;2023-12-04T04:43:46;13.90;;;4.80;;
79493;SDS011;68951;53.130;18.104;2023-12-04T04:46:13;16.50;;;6.00;;
79493;SDS011;68951;53.130;18.104;2023-12-04T04:48:40;11.70;;;3.80;;
79493;SDS011;68951;53.130;18.104;2023-12-04T04:51:07;16.20;;;6.90;;
79493;SDS011;68951;53.130;18.104;2023-12-04T04:53:34;14.30;;;5.60;;
79493;SDS011;68951;53.130;18.104;2023-12-04T04:56:01;12.10;;;4.40;;
79493;SDS011;68951;53.130;18.104;2023-12-04T04:58:27;11.90;;;4.60;;
79493;SDS011;68951;53.130;18.104;2023-12-04T05:00:54;14.70;;;5.70;;
79493;SDS011;68951;53.130;18.104;2023-12-04T05:03:21;10.20;;;3.90;;
79493;SDS011;68951;53.130;18.104;2023-12-04T05:05:48;11.10;;;4.60;;
79493;SDS011;68951;53.130;18.104;2023-12-04T05:08:14;8.90;;;3.00;;
79493;SDS011;68951;53.130;18.104;2023-12-04T05:10:41;8.80;;;3.20;;
79493;SDS011;68951;53.130;18.104;2023-12-04T05:13:08;13.30;;;6.20;;
79493;SDS011;68951;53.130;18.104;2023-12-04T05:15:35;16.40;;;7.30;;
79493;SDS011;68951;53.130;18.104;2023-12-04T05:18:02;16.80;;;7.30;;
79493;SDS011;68951;53.130;18.104;2023-12-04T05:20:29;10.00;;;3.40;;
79493;SDS011;68951;53.130;18.104;2023-12-04T05:22:56;9.20;;;3.20;;
79493;SDS011;68951;53.130;18.104;2023-12-04T05:25:23;13.70;;;5.40;;
79493;SDS011;68951;53.130;18.104;2023-12-04T05:27:50;16.10;;;6.50;;
79493;SDS011;68951;53.130;18.104;2023-12-04T05:30:17;10.90;;;3.90;;
79493;SDS011;68951;53.130;18.104;2023-12-04T05:32:44;12.60;;;4.30;;
79493;SDS011;68951;53.130;18.104;2023-12-04T05:35:11;16.50;;;5.90;;
79493;SDS011;68951;53.130;18.104;2023-12-04T05:37:37;15.10;;;5.60;;
79493;SDS011;68951;53.130;18.104;2023-12-04T05:40:06;12.00;;;4.50;;
79493;SDS011;68951;53.130;18.104;2023-12-04T05:42:34;12.40;;;5.80;;
79493;SDS011;68951;53.130;18.104;2023-12-04T05:45:01;12.80;;;4.90;;
79493;SDS011;68951;53.130;18.104;2023-12-04T05:47:28;17.50;;;6.70;;
79493;SDS011;68951;53.130;18.104;2023-12-04T05:49:55;13.10;;;5.40;;
79493;SDS011;68951;53.130;18.104;2023-12-04T05:52:22;13.20;;;5.10;;
79493;SDS011;68951;53.130;18.104;2023-12-04T05:54:49;14.10;;;5.40;;
79493;SDS011;68951;53.130;18.104;2023-12-04T05:57:15;11.50;;;4.00;;
79493;SDS011;68951;53.130;18.104;2023-12-04T05:59:43;16.80;;;6.60;;
79493;SDS011;68951;53.130;18.104;2023-12-04T06:02:09;14.60;;;6.30;;
79493;SDS011;68951;53.130;18.104;2023-12-04T06:04:36;11.20;;;4.50;;
79493;SDS011;68951;53.130;18.104;2023-12-04T06:07:03;12.90;;;4.40;;
79493;SDS011;68951;53.130;18.104;2023-12-04T06:09:31;10.00;;;4.40;;
79493;SDS011;68951;53.130;18.104;2023-12-04T06:11:58;13.20;;;5.50;;
79493;SDS011;68951;53.130;18.104;2023-12-04T06:14:30;8.20;;;2.70;;
79493;SDS011;68951;53.130;18.104;2023-12-04T06:16:57;11.90;;;4.50;;
79493;SDS011;68951;53.130;18.104;2023-12-04T06:19:24;10.60;;;4.20;;
79493;SDS011;68951;53.130;18.104;2023-12-04T06:21:51;15.00;;;6.20;;
79493;SDS011;68951;53.130;18.104;2023-12-04T06:24:19;15.90;;;5.50;;
79493;SDS011;68951;53.130;18.104;2023-12-04T06:26:48;12.70;;;5.10;;
79493;SDS011;68951;53.130;18.104;2023-12-04T06:29:17;13.70;;;5.20;;
79493;SDS011;68951;53.130;18.104;2023-12-04T06:31:44;12.90;;;4.70;;
79493;SDS011;68951;53.130;18.104;2023-12-04T06:34:11;13.00;;;6.00;;
79493;SDS011;68951;53.130;18.104;2023-12-04T06:36:38;14.20;;;5.40;;
79493;SDS011;68951;53.130;18.104;2023-12-04T06:39:10;7.50;;;2.30;;
79493;SDS011;68951;53.130;18.104;2023-12-04T06:41:39;10.20;;;3.50;;
79493;SDS011;68951;53.130;18.104;2023-12-04T06:44:07;10.50;;;4.10;;
79493;SDS011;68951;53.130;18.104;2023-12-04T06:46:38;12.90;;;4.20;;
79493;SDS011;68951;53.130;18.104;2023-12-04T06:49:06;8.90;;;3.10;;
79493;SDS011;68951;53.130;18.104;2023-12-04T06:51:33;12.60;;;5.10;;
79493;SDS011;68951;53.130;18.104;2023-12-04T06:54:00;10.20;;;4.10;;
79493;SDS011;68951;53.130;18.104;2023-12-04T06:56:26;15.50;;;5.70;;
79493;SDS011;68951;53.130;18.104;2023-12-04T06:58:53;13.10;;;5.50;;
79493;SDS011;68951;53.130;18.104;2023-12-04T07:01:20;14.20;;;6.10;;
79493;SDS011;68951;53.130;18.104;2023-12-04T07:03:48;15.00;;;6.20;;
79493;SDS011;68951;53.130;18.104;2023-12-04T07:06:15;12.60;;;4.90;;
79493;SDS011;68951;53.130;18.104;2023-12-04T07:08:42;19.90;;;9.20;;
79493;SDS011;68951;53.130;18.104;2023-12-04T07:11:09;19.70;;;9.40;;
79493;SDS011;68951;53.130;18.104;2023-12-04T07:13:35;24.90;;;10.60;;
79493;SDS011;68951;53.130;18.104;2023-12-04T07:16:03;10.60;;;4.10;;
79493;SDS011;68951;53.130;18.104;2023-12-04T07:18:30;16.50;;;7.50;;
79493;SDS011;68951;53.130;18.104;2023-12-04T07:20:57;16.80;;;7.00;;
79493;SDS011;68951;53.130;18.104;2023-12-04T07:23:23;19.70;;;7.80;;
79493;SDS011;68951;53.130;18.104;2023-12-04T07:25:50;12.30;;;5.40;;
79493;SDS011;68951;53.130;18.104;2023-12-04T07:28:18;16.10;;;7.70;;
79493;SDS011;68951;53.130;18.104;2023-12-04T07:30:46;15.70;;;5.70;;
79493;SDS011;68951;53.130;18.104;2023-12-04T07:33:12;18.10;;;7.20;;
79493;SDS011;68951;53.130;18.104;2023-12-04T07:35:39;16.60;;;6.90;;
79493;SDS011;68951;53.130;18.104;2023-12-04T07:38:06;13.90;;;5.40;;
79493;SDS011;68951;53.130;18.104;2023-12-04T07:40:33;16.70;;;7.10;;
79493;SDS011;68951;53.130;18.104;2023-12-04T07:42:59;12.50;;;5.10;;
79493;SDS011;68951;53.130;18.104;2023-12-04T07:45:26;10.60;;;4.30;;
79493;SDS011;68951;53.130;18.104;2023-12-04T07:47:53;18.10;;;7.50;;
79493;SDS011;68951;53.130;18.104;2023-12-04T07:50:20;9.50;;;3.50;;
79493;SDS011;68951;53.130;18.104;2023-12-04T07:52:47;18.20;;;7.30;;
79493;SDS011;68951;53.130;18.104;2023-12-04T07:55:13;18.00;;;8.00;;
79493;SDS011;68951;53.130;18.104;2023-12-04T07:57:40;13.40;;;5.20;;
79493;SDS011;68951;53.130;18.104;2023-12-04T08:00:07;10.30;;;3.70;;
79493;SDS011;68951;53.130;18.104;2023-12-04T08:02:34;16.10;;;7.80;;
79493;SDS011;68951;53.130;18.104;2023-12-04T08:05:01;16.80;;;7.00;;
79493;SDS011;68951;53.130;18.104;2023-12-04T08:07:28;19.20;;;8.70;;
79493;SDS011;68951;53.130;18.104;2023-12-04T08:09:55;14.40;;;6.00;;
79493;SDS011;68951;53.130;18.104;2023-12-04T08:12:22;23.50;;;9.80;;
79493;SDS011;68951;53.130;18.104;2023-12-04T08:14:49;13.90;;;5.40;;
79493;SDS011;68951;53.130;18.104;2023-12-04T08:17:15;15.80;;;7.50;;
79493;SDS011;68951;53.130;18.104;2023-12-04T08:19:43;14.50;;;5.70;;
79493;SDS011;68951;53.130;18.104;2023-12-04T08:22:10;11.40;;;4.90;;
79493;SDS011;68951;53.130;18.104;2023-12-04T08:24:37;20.70;;;8.20;;
79493;SDS011;68951;53.130;18.104;2023-12-04T08:27:04;23.60;;;10.80;;
79493;SDS011;68951;53.130;18.104;2023-12-04T08:29:31;17.30;;;6.80;;
79493;SDS011;68951;53.130;18.104;2023-12-04T08:31:58;20.70;;;9.10;;
79493;SDS011;68951;53.130;18.104;2023-12-04T08:34:25;19.10;;;8.60;;
79493;SDS011;68951;53.130;18.104;2023-12-04T08:36:51;18.20;;;7.50;;
79493;SDS011;68951;53.130;18.104;2023-12-04T08:39:18;16.90;;;7.10;;
79493;SDS011;68951;53.130;18.104;2023-12-04T08:41:46;19.50;;;7.70;;
79493;SDS011;68951;53.130;18.104;2023-12-04T08:44:15;11.50;;;4.30;;
79493;SDS011;68951;53.130;18.104;2023-12-04T08:46:43;19.40;;;7.70;;
79493;SDS011;68951;53.130;18.104;2023-12-04T08:49:11;15.50;;;5.40;;
79493;SDS011;68951;53.130;18.104;2023-12-04T08:51:38;14.10;;;5.80;;
79493;SDS011;68951;53.130;18.104;2023-12-04T08:54:04;19.90;;;8.50;;
79493;SDS011;68951;53.130;18.104;2023-12-04T08:56:31;24.00;;;10.60;;
79493;SDS011;68951;53.130;18.104;2023-12-04T08:58:58;14.00;;;5.30;;
79493;SDS011;68951;53.130;18.104;2023-12-04T09:01:25;17.70;;;7.10;;
79493;SDS011;68951;53.130;18.104;2023-12-04T09:03:51;16.00;;;6.00;;
79493;SDS011;68951;53.130;18.104;2023-12-04T09:06:18;15.80;;;6.40;;
79493;SDS011;68951;53.130;18.104;2023-12-04T09:08:45;21.20;;;9.90;;
79493;SDS011;68951;53.130;18.104;2023-12-04T09:11:12;11.60;;;4.30;;
79493;SDS011;68951;53.130;18.104;2023-12-04T09:13:38;9.40;;;3.30;;
79493;SDS011;68951;53.130;18.104;2023-12-04T09:16:06;13.40;;;5.80;;
79493;SDS011;68951;53.130;18.104;2023-12-04T09:18:34;13.80;;;5.90;;
79493;SDS011;68951;53.130;18.104;2023-12-04T09:21:01;16.30;;;6.30;;
79493;SDS011;68951;53.130;18.104;2023-12-04T09:23:27;13.40;;;5.70;;
79493;SDS011;68951;53.130;18.104;2023-12-04T09:25:54;13.30;;;5.00;;
79493;SDS011;68951;53.130;18.104;2023-12-04T09:28:21;16.00;;;6.40;;
79493;SDS011;68951;53.130;18.104;2023-12-04T09:30:48;22.90;;;8.80;;
79493;SDS011;68951;53.130;18.104;2023-12-04T09:33:14;22.30;;;9.80;;
79493;SDS011;68951;53.130;18.104;2023-12-04T09:35:41;18.50;;;8.70;;
79493;SDS011;68951;53.130;18.104;2023-12-04T09:38:09;21.00;;;9.10;;
79493;SDS011;68951;53.130;18.104;2023-12-04T09:40:37;13.50;;;4.70;;
79493;SDS011;68951;53.130;18.104;2023-12-04T09:43:05;17.00;;;6.70;;
79493;SDS011;68951;53.130;18.104;2023-12-04T09:45:32;14.40;;;5.00;;
79493;SDS011;68951;53.130;18.104;2023-12-04T09:47:59;16.00;;;5.90;;
79493;SDS011;68951;53.130;18.104;2023-12-04T09:50:26;22.80;;;10.20;;
79493;SDS011;68951;53.130;18.104;2023-12-04T09:52:54;17.50;;;7.50;;
79493;SDS011;68951;53.130;18.104;2023-12-04T09:55:24;21.00;;;8.30;;
79493;SDS011;68951;53.130;18.104;2023-12-04T09:57:51;18.70;;;7.10;;
79493;SDS011;68951;53.130;18.104;2023-12-04T10:00:20;17.10;;;7.90;;
79493;SDS011;68951;53.130;18.104;2023-12-04T10:02:48;12.50;;;4.30;;
79493;SDS011;68951;53.130;18.104;2023-12-04T10:05:15;15.20;;;6.70;;
79493;SDS011;68951;53.130;18.104;2023-12-04T10:07:42;15.10;;;6.10;;
79493;SDS011;68951;53.130;18.104;2023-12-04T10:10:08;16.80;;;6.90;;
79493;SDS011;68951;53.130;18.104;2023-12-04T10:12:35;17.30;;;7.40;;
79493;SDS011;68951;53.130;18.104;2023-12-04T10:15:04;19.70;;;7.00;;
79493;SDS011;68951;53.130;18.104;2023-12-04T10:17:44;20.30;;;8.10;;
79493;SDS011;68951;53.130;18.104;2023-12-04T10:20:15;15.90;;;7.20;;
79493;SDS011;68951;53.130;18.104;2023-12-04T10:22:57;16.80;;;6.80;;
79493;SDS011;68951;53.130;18.104;2023-12-04T10:25:27;16.70;;;6.70;;
79493;SDS011;68951;53.130;18.104;2023-12-04T10:28:10;24.80;;;10.10;;
79493;SDS011;68951;53.130;18.104;2023-12-04T10:30:38;23.30;;;9.40;;
79493;SDS011;68951;53.130;18.104;2023-12-04T10:33:06;27.40;;;10.70;;
79493;SDS011;68951;53.130;18.104;2023-12-04T10:35:35;20.20;;;8.00;;
79493;SDS011;68951;53.130;18.104;2023-12-04T10:38:04;14.90;;;6.20;;
79493;SDS011;68951;53.130;18.104;2023-12-04T10:40:34;27.60;;;11.20;;
79493;SDS011;68951;53.130;18.104;2023-12-04T10:45:36;19.20;;;7.90;;
79493;SDS011;68951;53.130;18.104;2023-12-04T10:48:04;18.30;;;7.20;;
79493;SDS011;68951;53.130;18.104;2023-12-04T10:50:36;16.30;;;6.20;;
79493;SDS011;68951;53.130;18.104;2023-12-04T10:53:08;18.10;;;7.50;;
79493;SDS011;68951;53.130;18.104;2023-12-04T10:55:36;19.40;;;7.50;;
79493;SDS011;68951;53.130;18.104;2023-12-04T10:58:09;22.80;;;8.80;;
79493;SDS011;68951;53.130;18.104;2023-12-04T11:00:48;17.80;;;6.60;;
79493;SDS011;68951;53.130;18.104;2023-12-04T11:03:22;23.60;;;9.40;;
79493;SDS011;68951;53.130;18.104;2023-12-04T11:05:56;16.40;;;6.20;;
79493;SDS011;68951;53.130;18.104;2023-12-04T11:08:29;19.30;;;7.60;;
79493;SDS011;68951;53.130;18.104;2023-12-04T11:11:02;26.90;;;10.50;;
79493;SDS011;68951;53.130;18.104;2023-12-04T11:13:32;17.60;;;6.70;;
79493;SDS011;68951;53.130;18.104;2023-12-04T11:19:30;25.60;;;10.20;;
79493;SDS011;68951;53.130;18.104;2023-12-04T11:22:09;21.00;;;8.50;;
79493;SDS011;68951;53.130;18.104;2023-12-04T11:24:39;21.20;;;8.30;;
79493;SDS011;68951;53.130;18.104;2023-12-04T11:27:06;23.30;;;9.20;;
79493;SDS011;68951;53.130;18.104;2023-12-04T11:29:34;26.80;;;10.40;;
79493;SDS011;68951;53.130;18.104;2023-12-04T11:32:05;18.50;;;6.70;;
79493;SDS011;68951;53.130;18.104;2023-12-04T11:34:35;18.90;;;7.40;;
79493;SDS011;68951;53.130;18.104;2023-12-04T11:37:02;32.50;;;14.10;;
79493;SDS011;68951;53.130;18.104;2023-12-04T11:39:33;19.30;;;9.90;;
79493;SDS011;68951;53.130;18.104;2023-12-04T11:42:01;25.80;;;10.10;;
79493;SDS011;68951;53.130;18.104;2023-12-04T11:44:32;18.90;;;7.90;;
79493;SDS011;68951;53.130;18.104;2023-12-04T11:47:05;27.60;;;11.80;;
79493;SDS011;68951;53.130;18.104;2023-12-04T11:49:33;23.20;;;10.10;;
79493;SDS011;68951;53.130;18.104;2023-12-04T11:52:03;17.10;;;7.60;;
79493;SDS011;68951;53.130;18.104;2023-12-04T11:57:37;21.80;;;9.00;;
79493;SDS011;68951;53.130;18.104;2023-12-04T12:02:41;26.20;;;12.30;;
79493;SDS011;68951;53.130;18.104;2023-12-04T12:05:28;17.00;;;7.70;;
79493;SDS011;68951;53.130;18.104;2023-12-04T12:07:55;24.50;;;11.40;;
79493;SDS011;68951;53.130;18.104;2023-12-04T12:10:23;16.70;;;7.90;;
79493;SDS011;68951;53.130;18.104;2023-12-04T12:12:50;19.30;;;9.10;;
79493;SDS011;68951;53.130;18.104;2023-12-04T12:15:18;24.30;;;11.20;;
79493;SDS011;68951;53.130;18.104;2023-12-04T12:17:44;24.70;;;11.50;;
79493;SDS011;68951;53.130;18.104;2023-12-04T12:20:13;30.10;;;14.40;;
79493;SDS011;68951;53.130;18.104;2023-12-04T12:22:41;19.30;;;9.10;;
79493;SDS011;68951;53.130;18.104;2023-12-04T12:25:10;22.50;;;11.10;;
79493;SDS011;68951;53.130;18.104;2023-12-04T12:27:38;22.80;;;11.50;;
79493;SDS011;68951;53.130;18.104;2023-12-04T12:30:06;27.00;;;14.70;;
79493;SDS011;68951;53.130;18.104;2023-12-04T12:32:34;23.70;;;11.80;;
79493;SDS011;68951;53.130;18.104;2023-12-04T12:35:02;29.10;;;15.10;;
79493;SDS011;68951;53.130;18.104;2023-12-04T12:37:34;20.60;;;11.00;;
79493;SDS011;68951;53.130;18.104;2023-12-04T12:40:01;24.70;;;12.60;;
79493;SDS011;68951;53.130;18.104;2023-12-04T12:42:31;29.30;;;15.00;;
79493;SDS011;68951;53.130;18.104;2023-12-04T12:45:01;27.80;;;14.70;;
79493;SDS011;68951;53.130;18.104;2023-12-04T12:47:30;31.50;;;17.70;;
79493;SDS011;68951;53.130;18.104;2023-12-04T12:49:57;23.50;;;12.50;;
79493;SDS011;68951;53.130;18.104;2023-12-04T12:52:26;23.80;;;13.20;;
79493;SDS011;68951;53.130;18.104;2023-12-04T12:54:53;32.80;;;18.20;;
79493;SDS011;68951;53.130;18.104;2023-12-04T12:57:20;26.10;;;15.00;;
79493;SDS011;68951;53.130;18.104;2023-12-04T12:59:47;39.90;;;19.40;;
79493;SDS011;68951;53.130;18.104;2023-12-04T13:02:14;41.50;;;21.40;;
79493;SDS011;68951;53.130;18.104;2023-12-04T13:04:41;30.30;;;15.90;;
79493;SDS011;68951;53.130;18.104;2023-12-04T13:07:09;26.00;;;14.60;;
79493;SDS011;68951;53.130;18.104;2023-12-04T13:09:38;28.20;;;15.50;;
79493;SDS011;68951;53.130;18.104;2023-12-04T13:12:06;26.80;;;15.00;;
79493;SDS011;68951;53.130;18.104;2023-12-04T13:14:34;29.10;;;16.40;;
79493;SDS011;68951;53.130;18.104;2023-12-04T13:17:04;20.10;;;9.80;;
79493;SDS011;68951;53.130;18.104;2023-12-04T13:19:31;27.80;;;12.40;;
79493;SDS011;68951;53.130;18.104;2023-12-04T13:21:58;28.10;;;14.20;;
79493;SDS011;68951;53.130;18.104;2023-12-04T13:24:24;24.60;;;13.40;;
79493;SDS011;68951;53.130;18.104;2023-12-04T13:26:52;17.80;;;8.20;;
79493;SDS011;68951;53.130;18.104;2023-12-04T13:29:19;28.00;;;12.90;;
79493;SDS011;68951;53.130;18.104;2023-12-04T13:31:46;24.10;;;13.10;;
79493;SDS011;68951;53.130;18.104;2023-12-04T13:34:16;30.50;;;13.40;;
79493;SDS011;68951;53.130;18.104;2023-12-04T13:36:43;29.30;;;15.00;;
79493;SDS011;68951;53.130;18.104;2023-12-04T13:39:10;24.90;;;11.40;;
79493;SDS011;68951;53.130;18.104;2023-12-04T13:41:44;31.20;;;15.90;;
79493;SDS011;68951;53.130;18.104;2023-12-04T13:44:31;27.40;;;12.20;;
79493;SDS011;68951;53.130;18.104;2023-12-04T13:46:59;30.40;;;14.90;;
79493;SDS011;68951;53.130;18.104;2023-12-04T13:49:26;28.90;;;14.80;;
79493;SDS011;68951;53.130;18.104;2023-12-04T13:51:53;13.10;;;5.90;;
79493;SDS011;68951;53.130;18.104;2023-12-04T13:54:21;30.70;;;14.10;;
79493;SDS011;68951;53.130;18.104;2023-12-04T13:56:55;33.80;;;16.10;;
79493;SDS011;68951;53.130;18.104;2023-12-04T13:59:23;30.90;;;14.50;;
79493;SDS011;68951;53.130;18.104;2023-12-04T14:01:50;31.10;;;14.30;;
79493;SDS011;68951;53.130;18.104;2023-12-04T14:04:18;35.80;;;16.80;;
79493;SDS011;68951;53.130;18.104;2023-12-04T14:06:45;41.90;;;17.10;;
79493;SDS011;68951;53.130;18.104;2023-12-04T14:09:12;37.70;;;15.90;;
79493;SDS011;68951;53.130;18.104;2023-12-04T14:11:43;37.00;;;15.00;;
79493;SDS011;68951;53.130;18.104;2023-12-04T14:14:14;31.50;;;13.70;;
79493;SDS011;68951;53.130;18.104;2023-12-04T14:16:41;37.10;;;14.80;;
79493;SDS011;68951;53.130;18.104;2023-12-04T14:19:08;35.30;;;13.80;;
79493;SDS011;68951;53.130;18.104;2023-12-04T14:21:35;33.60;;;12.10;;
79493;SDS011;68951;53.130;18.104;2023-12-04T14:24:02;34.30;;;13.30;;
79493;SDS011;68951;53.130;18.104;2023-12-04T14:26:29;30.10;;;11.60;;
79493;SDS011;68951;53.130;18.104;2023-12-04T14:28:56;25.00;;;9.70;;
79493;SDS011;68951;53.130;18.104;2023-12-04T14:31:23;22.90;;;9.70;;
79493;SDS011;68951;53.130;18.104;2023-12-04T14:33:50;34.80;;;13.10;;
79493;SDS011;68951;53.130;18.104;2023-12-04T14:36:19;31.80;;;13.00;;